createdAt,value
2024-01-16T00:00:43.889Z,87.28
2024-01-16T00:02:45.502Z,86.92
2024-01-16T00:04:47.088Z,87.59
2024-01-16T00:06:50.080Z,87.73
2024-01-16T00:08:51.643Z,87.88
2024-01-16T00:10:53.184Z,88.07
2024-01-16T00:12:54.715Z,88.51
2024-01-16T00:14:56.226Z,88.94
2024-01-16T00:16:57.762Z,88.91
2024-01-16T00:18:59.450Z,89.11
2024-01-16T00:21:02.281Z,89.25
2024-01-16T00:23:05.357Z,89.98
2024-01-16T00:25:08.183Z,90.58
2024-01-16T00:27:10.981Z,89.73
2024-01-16T00:29:12.821Z,89.47
2024-01-16T00:31:14.396Z,89.71
2024-01-16T00:33:16.010Z,89.67
2024-01-16T00:35:17.650Z,88.93
2024-01-16T00:37:19.226Z,88.92
2024-01-16T00:39:22.110Z,89.41
2024-01-16T00:41:23.676Z,88.43
2024-01-16T00:43:25.221Z,88.24
2024-01-16T00:45:26.759Z,88.40
2024-01-16T00:47:28.397Z,88.47
2024-01-16T00:49:30.037Z,89.25
2024-01-16T00:51:31.645Z,89.14
2024-01-16T00:53:33.229Z,89.10
2024-01-16T00:55:36.174Z,88.16
2024-01-16T00:57:37.726Z,88.46
2024-01-16T00:59:39.296Z,89.03
2024-01-16T01:01:40.868Z,88.70
2024-01-16T01:03:42.453Z,88.45
2024-01-16T01:05:44.106Z,87.40
2024-01-16T01:07:45.854Z,87.78
2024-01-16T01:09:47.397Z,87.08
2024-01-16T01:11:50.321Z,86.98
2024-01-16T01:13:52.382Z,86.89
2024-01-16T01:15:53.963Z,87.27
2024-01-16T01:17:55.710Z,87.15
2024-01-16T01:19:57.686Z,88.28
2024-01-16T01:21:59.269Z,88.14
2024-01-16T01:24:01.002Z,87.51
2024-01-16T01:26:02.585Z,87.26
2024-01-16T01:28:05.843Z,87.33
2024-01-16T01:30:08.912Z,87.55
2024-01-16T01:32:10.486Z,86.64
2024-01-16T01:34:12.207Z,86.37
2024-01-16T01:36:13.844Z,86.13
2024-01-16T01:38:15.487Z,86.47
2024-01-16T01:40:17.146Z,87.15
2024-01-16T01:42:18.717Z,86.90
2024-01-16T01:44:21.717Z,86.49
2024-01-16T01:46:23.878Z,85.96
2024-01-16T01:48:25.530Z,85.89
2024-01-16T01:50:27.135Z,85.60
2024-01-16T01:52:29.123Z,86.05
2024-01-16T01:54:32.791Z,86.56
2024-01-16T01:56:34.636Z,86.72
2024-01-16T01:58:37.516Z,87.63
2024-01-16T02:00:40.496Z,87.04
2024-01-16T02:02:43.138Z,87.04
2024-01-16T02:04:44.917Z,87.37
2024-01-16T02:06:46.740Z,86.62
2024-01-16T02:08:48.438Z,86.64
2024-01-16T02:10:51.190Z,86.37
2024-01-16T02:12:52.768Z,86.05
2024-01-16T02:14:54.272Z,86.90
2024-01-16T02:16:57.150Z,86.49
2024-01-16T02:18:58.688Z,86.11
2024-01-16T02:21:01.970Z,86.47
2024-01-16T02:23:05.127Z,86.53
2024-01-16T02:25:08.862Z,86.29
2024-01-16T02:27:10.399Z,86.04
2024-01-16T02:29:12.112Z,86.02
2024-01-16T02:31:13.811Z,85.81
2024-01-16T02:33:15.619Z,85.13
2024-01-16T02:35:17.336Z,84.92
2024-01-16T02:37:18.924Z,85.12
2024-01-16T02:39:20.776Z,85.91
2024-01-16T02:41:23.723Z,85.64
2024-01-16T02:43:25.270Z,85.56
2024-01-16T02:45:26.849Z,85.26
2024-01-16T02:47:28.435Z,85.09
2024-01-16T02:49:30.011Z,84.94
2024-01-16T02:51:31.616Z,85.17
2024-01-16T02:53:33.221Z,85.07
2024-01-16T02:55:34.840Z,84.21
2024-01-16T02:57:37.731Z,85.00
2024-01-16T02:59:39.321Z,84.88
2024-01-16T03:01:40.929Z,85.41
2024-01-16T03:03:42.570Z,85.41
2024-01-16T03:05:44.465Z,84.87
2024-01-16T03:07:46.133Z,84.72
2024-01-16T03:09:47.670Z,84.41
2024-01-16T03:11:49.249Z,84.04
2024-01-16T03:13:52.123Z,83.45
2024-01-16T03:15:53.667Z,83.87
2024-01-16T03:17:55.324Z,83.78
2024-01-16T03:19:56.913Z,83.84
2024-01-16T03:21:58.412Z,84.15
2024-01-16T03:23:59.944Z,84.87
2024-01-16T03:26:01.484Z,84.30
2024-01-16T03:28:03.035Z,84.72
2024-01-16T03:30:07.550Z,85.02
2024-01-16T03:32:09.433Z,85.60
2024-01-16T03:34:11.082Z,85.69
2024-01-16T03:36:12.649Z,85.39
2024-01-16T03:38:14.357Z,85.61
2024-01-16T03:40:16.131Z,85.66
2024-01-16T03:42:17.691Z,85.53
2024-01-16T03:44:19.294Z,85.60
2024-01-16T03:46:22.166Z,85.36
2024-01-16T03:48:23.891Z,85.65
2024-01-16T03:50:25.526Z,85.13
2024-01-16T03:52:27.081Z,85.65
2024-01-16T03:54:28.689Z,85.32
2024-01-16T03:56:30.349Z,85.54
2024-01-16T03:58:31.931Z,85.91
2024-01-16T04:00:33.484Z,86.13
2024-01-16T04:02:38.184Z,85.85
2024-01-16T04:04:39.735Z,85.24
2024-01-16T04:06:41.527Z,84.86
2024-01-16T04:08:43.073Z,86.36
2024-01-16T04:10:44.641Z,86.81
2024-01-16T04:12:46.168Z,86.38
2024-01-16T04:14:47.731Z,86.90
2024-01-16T04:16:49.235Z,86.59
2024-01-16T04:18:52.242Z,86.11
2024-01-16T04:20:53.838Z,86.74
2024-01-16T04:22:55.366Z,86.24
2024-01-16T04:24:56.894Z,84.76
2024-01-16T04:26:58.485Z,85.79
2024-01-16T04:29:00.057Z,84.74
2024-01-16T04:31:01.833Z,85.22
2024-01-16T04:33:03.934Z,86.22
2024-01-16T04:35:07.658Z,85.39
2024-01-16T04:37:09.231Z,84.54
2024-01-16T04:39:10.784Z,85.85
2024-01-16T04:41:12.841Z,85.35
2024-01-16T04:43:14.495Z,85.55
2024-01-16T04:45:16.092Z,84.60
2024-01-16T04:47:17.759Z,84.28
2024-01-16T04:49:19.378Z,85.73
2024-01-16T04:51:22.279Z,86.69
2024-01-16T04:53:23.789Z,86.67
2024-01-16T04:55:25.321Z,87.24
2024-01-16T04:57:26.914Z,86.57
2024-01-16T04:59:28.487Z,86.33
2024-01-16T05:01:30.018Z,86.78
2024-01-16T05:03:31.613Z,86.67
2024-01-16T05:05:33.317Z,87.05
2024-01-16T05:07:36.290Z,86.31
2024-01-16T05:09:37.878Z,86.34
2024-01-16T05:11:39.460Z,86.65
2024-01-16T05:13:41.038Z,86.42
2024-01-16T05:15:42.620Z,86.73
2024-01-16T05:17:44.246Z,85.81
2024-01-16T05:19:45.811Z,85.84
2024-01-16T05:21:47.366Z,86.07
2024-01-16T05:23:50.394Z,86.44
2024-01-16T05:25:51.982Z,86.56
2024-01-16T05:27:53.521Z,87.25
2024-01-16T05:29:55.750Z,85.47
2024-01-16T05:31:57.378Z,85.24
2024-01-16T05:33:58.958Z,84.08
2024-01-16T05:36:00.737Z,84.07
2024-01-16T05:38:02.412Z,91.21
2024-01-16T05:40:06.938Z,94.11
2024-01-16T05:42:08.497Z,87.16
2024-01-16T05:44:10.077Z,85.58
2024-01-16T05:46:11.598Z,82.09
2024-01-16T05:48:13.252Z,81.67
2024-01-16T05:50:15.067Z,81.73
2024-01-16T05:52:16.683Z,82.37
2024-01-16T05:54:18.214Z,83.34
2024-01-16T05:56:21.201Z,84.95
2024-01-16T05:58:22.765Z,85.28
2024-01-16T06:00:24.655Z,85.50
2024-01-16T06:02:26.357Z,86.25
2024-01-16T06:04:27.952Z,85.59
2024-01-16T06:06:29.516Z,84.75
2024-01-16T06:08:31.131Z,84.54
2024-01-16T06:10:32.773Z,83.93
2024-01-16T06:12:35.848Z,83.98
2024-01-16T06:14:37.540Z,83.75
2024-01-16T06:16:39.117Z,82.99
2024-01-16T06:18:40.788Z,83.96
2024-01-16T06:20:42.442Z,83.81
2024-01-16T06:22:43.996Z,82.66
2024-01-16T06:24:45.505Z,81.93
2024-01-16T06:26:47.120Z,82.77
2024-01-16T06:28:50.031Z,82.72
2024-01-16T06:30:51.593Z,83.10
2024-01-16T06:32:53.271Z,82.49
2024-01-16T06:34:55.099Z,82.75
2024-01-16T06:36:56.634Z,81.63
2024-01-16T06:38:58.199Z,81.37
2024-01-16T06:40:59.749Z,81.14
2024-01-16T06:43:03.931Z,80.92
2024-01-16T06:45:08.015Z,81.47
2024-01-16T06:47:09.608Z,82.17
2024-01-16T06:49:11.262Z,81.05
2024-01-16T06:51:12.823Z,80.81
2024-01-16T06:53:16.837Z,81.64
2024-01-16T06:55:18.724Z,81.83
2024-01-16T06:57:20.290Z,82.34
2024-01-16T06:59:21.895Z,82.55
2024-01-16T07:01:24.806Z,82.03
2024-01-16T07:03:26.366Z,81.87
2024-01-16T07:05:27.990Z,82.35
2024-01-16T07:07:29.555Z,82.38
2024-01-16T07:09:31.118Z,81.99
2024-01-16T07:11:32.755Z,81.76
2024-01-16T07:13:37.325Z,81.46
2024-01-16T07:15:38.893Z,81.28
2024-01-16T07:17:41.921Z,81.40
2024-01-16T07:19:43.611Z,81.53
2024-01-16T07:21:45.145Z,80.86
2024-01-16T07:23:46.841Z,80.89
2024-01-16T07:25:48.468Z,80.80
2024-01-16T07:27:50.049Z,80.01
2024-01-16T07:29:51.638Z,79.25
2024-01-16T07:31:53.242Z,78.59
2024-01-16T07:33:56.343Z,78.37
2024-01-16T07:35:58.260Z,78.45
2024-01-16T07:38:02.446Z,78.83
2024-01-16T07:40:06.393Z,78.70
2024-01-16T07:42:07.995Z,78.51
2024-01-16T07:44:09.578Z,78.11
2024-01-16T07:46:11.829Z,77.64
2024-01-16T07:48:13.470Z,77.93
2024-01-16T07:50:16.780Z,77.47
2024-01-16T07:52:18.316Z,76.96
2024-01-16T07:54:19.892Z,78.35
2024-01-16T07:56:21.437Z,78.16
2024-01-16T07:58:23.028Z,78.49
2024-01-16T08:00:24.594Z,78.68
2024-01-16T08:02:32.674Z,78.35
2024-01-16T08:04:34.250Z,77.54
2024-01-16T08:06:37.518Z,78.46
2024-01-16T08:08:39.155Z,78.39
2024-01-16T08:10:42.188Z,78.11
2024-01-16T08:12:43.813Z,77.65
2024-01-16T08:14:45.371Z,76.88
2024-01-16T08:16:47.119Z,77.65
2024-01-16T08:18:48.841Z,77.86
2024-01-16T08:20:50.488Z,76.80
2024-01-16T08:22:54.080Z,76.23
2024-01-16T08:24:55.886Z,75.99
2024-01-16T08:26:57.509Z,75.69
2024-01-16T08:28:59.277Z,76.64
2024-01-16T08:31:00.983Z,76.96
2024-01-16T08:33:02.798Z,76.15
2024-01-16T08:35:05.470Z,76.25
2024-01-16T08:37:07.040Z,76.57
2024-01-16T08:39:10.006Z,75.42
2024-01-16T08:41:11.539Z,75.89
2024-01-16T08:43:13.200Z,75.75
2024-01-16T08:45:14.847Z,75.43
2024-01-16T08:47:16.456Z,75.59
2024-01-16T08:49:21.041Z,76.04
2024-01-16T08:51:23.153Z,76.19
2024-01-16T08:53:24.926Z,75.42
2024-01-16T08:55:27.906Z,75.54
2024-01-16T08:57:31.151Z,75.60
2024-01-16T08:59:32.839Z,76.07
2024-01-16T09:01:34.400Z,75.67
2024-01-16T09:03:35.955Z,75.65
2024-01-16T09:05:37.763Z,75.61
2024-01-16T09:07:39.480Z,74.91
2024-01-16T09:09:41.056Z,74.58
2024-01-16T09:11:43.961Z,74.63
2024-01-16T09:13:45.548Z,74.55
2024-01-16T09:15:47.157Z,73.81
2024-01-16T09:17:48.885Z,73.63
2024-01-16T09:19:50.564Z,72.78
2024-01-16T09:21:52.136Z,72.77
2024-01-16T09:23:53.673Z,72.59
2024-01-16T09:25:55.225Z,72.50
2024-01-16T09:27:58.090Z,71.38
2024-01-16T09:29:59.644Z,71.14
2024-01-16T09:32:01.208Z,71.36
2024-01-16T09:34:05.468Z,71.63
2024-01-16T09:36:07.966Z,72.00
2024-01-16T09:38:09.736Z,71.58
2024-01-16T09:40:12.277Z,71.87
2024-01-16T09:42:14.259Z,70.74
2024-01-16T09:44:17.245Z,70.83
2024-01-16T09:46:20.849Z,70.63
2024-01-16T09:48:22.651Z,69.89
2024-01-16T09:50:24.350Z,68.93
2024-01-16T09:52:26.281Z,69.39
2024-01-16T09:54:27.960Z,69.21
2024-01-16T09:56:31.703Z,69.93
2024-01-16T09:58:37.291Z,69.21
2024-01-16T10:00:41.591Z,68.81
2024-01-16T10:02:43.571Z,68.00
2024-01-16T10:04:45.373Z,67.09
2024-01-16T10:06:47.285Z,66.44
2024-01-16T10:08:48.926Z,66.48
2024-01-16T10:10:52.819Z,66.08
2024-01-16T10:12:56.293Z,66.76
2024-01-16T10:14:58.178Z,66.36
2024-01-16T10:17:02.834Z,66.13
2024-01-16T10:19:05.192Z,66.60
2024-01-16T10:21:21.143Z,66.52
2024-01-16T10:23:26.514Z,66.76
2024-01-16T10:25:28.090Z,66.88
2024-01-16T10:27:29.617Z,65.89
2024-01-16T10:29:39.678Z,66.19
2024-01-16T10:31:48.789Z,65.18
2024-01-16T10:33:51.892Z,64.60
2024-01-16T10:36:08.136Z,65.16
2024-01-16T10:38:09.694Z,64.56
2024-01-16T10:40:11.749Z,64.35
2024-01-16T10:42:16.186Z,64.35
2024-01-16T10:44:17.789Z,64.25
2024-01-16T10:46:20.964Z,63.37
2024-01-16T10:48:23.578Z,63.77
2024-01-16T10:50:26.636Z,64.27
2024-01-16T10:52:29.205Z,64.57
2024-01-16T10:54:31.718Z,64.90
2024-01-16T10:56:33.345Z,64.55
2024-01-16T10:58:37.033Z,63.25
2024-01-16T11:00:40.438Z,63.58
2024-01-16T11:02:50.242Z,62.41
2024-01-16T11:04:55.382Z,62.21
2024-01-16T11:06:59.385Z,62.14
2024-01-16T11:09:02.761Z,61.10
2024-01-16T11:11:06.065Z,60.67
2024-01-16T11:13:08.046Z,61.48
2024-01-16T11:15:11.768Z,61.14
2024-01-16T11:17:16.462Z,61.40
2024-01-16T11:19:37.670Z,61.45
2024-01-16T11:21:42.322Z,61.54
2024-01-16T11:23:45.615Z,61.77
2024-01-16T11:25:47.168Z,61.19
2024-01-16T11:27:48.732Z,60.55
2024-01-16T11:29:51.016Z,60.63
2024-01-16T11:32:01.096Z,59.92
2024-01-16T11:34:10.527Z,60.45
2024-01-16T11:36:49.747Z,60.04
2024-01-16T11:38:57.265Z,58.90
2024-01-16T11:40:58.818Z,58.52
2024-01-16T11:43:36.635Z,57.57
2024-01-16T11:45:53.610Z,57.51
2024-01-16T11:48:09.525Z,57.23
2024-01-16T11:50:13.376Z,56.81
2024-01-16T11:52:15.152Z,56.55
2024-01-16T11:54:18.146Z,56.71
2024-01-16T11:56:44.087Z,56.00
2024-01-16T11:58:53.247Z,56.03
2024-01-16T12:00:55.776Z,55.86
2024-01-16T12:02:57.886Z,57.66
2024-01-16T12:04:59.557Z,56.95
2024-01-16T12:07:01.934Z,56.66
2024-01-16T12:09:13.089Z,56.33
2024-01-16T12:11:22.825Z,55.69
2024-01-16T12:13:26.857Z,55.19
2024-01-16T12:15:28.375Z,54.76
2024-01-16T12:17:32.513Z,54.01
2024-01-16T12:19:34.201Z,53.43
2024-01-16T12:21:40.053Z,53.17
2024-01-16T12:23:47.157Z,52.64
2024-01-16T12:26:02.008Z,52.56
2024-01-16T12:28:09.107Z,51.99
2024-01-16T12:30:13.276Z,51.53
2024-01-16T12:32:14.906Z,52.15
2024-01-16T12:34:16.780Z,51.81
2024-01-16T12:36:18.661Z,50.96
2024-01-16T12:38:20.208Z,50.53
2024-01-16T12:40:21.756Z,50.30
2024-01-16T12:42:25.610Z,49.24
2024-01-16T12:44:29.774Z,49.03
2024-01-16T12:46:31.354Z,49.03
2024-01-16T12:48:33.470Z,49.42
2024-01-16T12:50:35.184Z,48.85
2024-01-16T12:52:36.775Z,48.65
2024-01-16T12:54:38.333Z,48.25
2024-01-16T12:56:40.510Z,46.99
2024-01-16T12:58:42.062Z,47.39
2024-01-16T13:00:45.622Z,47.87
2024-01-16T13:02:50.626Z,48.11
2024-01-16T13:04:58.894Z,46.91
2024-01-16T13:07:03.151Z,47.16
2024-01-16T13:09:06.810Z,47.44
2024-01-16T13:11:09.584Z,46.70
2024-01-16T13:13:15.734Z,46.17
2024-01-16T13:15:17.296Z,45.78
2024-01-16T13:17:20.221Z,46.45
2024-01-16T13:19:22.776Z,46.47
2024-01-16T13:21:24.450Z,45.95
2024-01-16T13:23:27.136Z,45.52
2024-01-16T13:25:28.753Z,46.01
2024-01-16T13:27:30.280Z,46.37
2024-01-16T13:29:31.827Z,46.24
2024-01-16T13:31:33.705Z,46.23
2024-01-16T13:33:36.976Z,46.02
2024-01-16T13:35:42.231Z,47.96
2024-01-16T13:37:43.765Z,47.49
2024-01-16T13:39:45.332Z,48.67
2024-01-16T13:41:46.899Z,48.87
2024-01-16T13:43:48.452Z,49.34
2024-01-16T13:45:49.994Z,50.04
2024-01-16T13:47:51.649Z,49.94
2024-01-16T13:49:54.619Z,49.76
2024-01-16T13:51:56.192Z,49.04
2024-01-16T13:53:57.798Z,48.11
2024-01-16T13:55:59.364Z,48.25
2024-01-16T13:58:01.245Z,48.78
2024-01-16T14:00:03.652Z,48.43
2024-01-16T14:02:05.501Z,48.29
2024-01-16T14:04:07.361Z,47.95
2024-01-16T14:06:10.331Z,48.50
2024-01-16T14:08:12.079Z,49.58
2024-01-16T14:10:14.335Z,50.12
2024-01-16T14:12:16.062Z,49.83
2024-01-16T14:14:17.653Z,50.52
2024-01-16T14:16:32.162Z,50.55
2024-01-16T14:18:40.890Z,51.18
2024-01-16T14:20:42.598Z,50.72
2024-01-16T14:22:45.518Z,51.12
2024-01-16T14:24:47.046Z,51.36
2024-01-16T14:26:48.873Z,51.23
2024-01-16T14:28:50.454Z,51.83
2024-01-16T14:30:52.026Z,51.54
2024-01-16T14:32:53.776Z,51.39
2024-01-16T14:34:55.314Z,51.39
2024-01-16T14:36:56.816Z,51.03
2024-01-16T14:38:59.744Z,52.04
2024-01-16T14:41:01.286Z,52.25
2024-01-16T14:43:03.021Z,52.43
2024-01-16T14:45:05.253Z,52.48
2024-01-16T14:47:06.920Z,52.92
2024-01-16T14:49:08.511Z,53.22
2024-01-16T14:51:10.214Z,53.14
2024-01-16T14:53:11.782Z,53.08
2024-01-16T14:55:14.927Z,53.01
2024-01-16T14:57:16.664Z,53.51
2024-01-16T14:59:18.292Z,53.67
2024-01-16T15:01:19.898Z,54.10
2024-01-16T15:03:21.414Z,54.56
2024-01-16T15:05:23.748Z,54.52
2024-01-16T15:07:25.648Z,54.97
2024-01-16T15:09:27.180Z,55.14
2024-01-16T15:11:30.110Z,55.72
2024-01-16T15:13:31.629Z,56.29
2024-01-16T15:15:33.187Z,56.40
2024-01-16T15:17:34.843Z,56.89
2024-01-16T15:19:37.594Z,57.61
2024-01-16T15:21:39.176Z,57.74
2024-01-16T15:23:40.832Z,57.79
2024-01-16T15:25:42.406Z,57.72
2024-01-16T15:27:45.297Z,57.86
2024-01-16T15:29:46.866Z,58.03
2024-01-16T15:31:48.507Z,59.04
2024-01-16T15:33:50.274Z,59.62
2024-01-16T15:35:51.929Z,59.34
2024-01-16T15:37:53.533Z,59.71
2024-01-16T15:39:55.104Z,59.84
2024-01-16T15:41:56.684Z,60.65
2024-01-16T15:44:06.479Z,60.76
2024-01-16T15:46:12.697Z,61.01
2024-01-16T15:48:14.275Z,61.19
2024-01-16T15:50:15.937Z,62.17
2024-01-16T15:52:17.492Z,62.69
2024-01-16T15:54:22.256Z,63.65
2024-01-16T15:56:23.775Z,64.58
2024-01-16T15:58:25.377Z,64.39
2024-01-16T16:00:28.318Z,64.92
2024-01-16T16:02:29.923Z,65.52
2024-01-16T16:04:31.455Z,65.91
2024-01-16T16:06:34.924Z,66.07
2024-01-16T16:08:36.858Z,65.98
2024-01-16T16:10:38.372Z,65.69
2024-01-16T16:12:39.915Z,65.89
2024-01-16T16:14:41.652Z,66.59
2024-01-16T16:16:45.099Z,67.20
2024-01-16T16:18:47.083Z,67.44
2024-01-16T16:20:48.700Z,68.39
2024-01-16T16:22:50.273Z,68.51
2024-01-16T16:24:51.808Z,68.96
2024-01-16T16:26:53.439Z,68.77
2024-01-16T16:28:55.009Z,68.99
2024-01-16T16:30:56.711Z,69.86
2024-01-16T16:32:59.736Z,70.09
2024-01-16T16:35:01.379Z,70.02
2024-01-16T16:37:03.192Z,70.69
2024-01-16T16:39:05.629Z,71.46
2024-01-16T16:41:07.120Z,72.10
2024-01-16T16:43:08.658Z,72.73
2024-01-16T16:45:10.546Z,72.75
2024-01-16T16:47:12.096Z,71.77
2024-01-16T16:49:15.057Z,71.71
2024-01-16T16:51:18.381Z,71.88
2024-01-16T16:53:19.892Z,72.31
2024-01-16T16:55:21.436Z,73.14
2024-01-16T16:57:23.004Z,72.87
2024-01-16T16:59:24.751Z,72.94
2024-01-16T17:01:26.358Z,73.26
2024-01-16T17:03:27.878Z,73.32
2024-01-16T17:05:31.212Z,74.13
2024-01-16T17:07:33.218Z,74.12
2024-01-16T17:09:34.799Z,74.10
2024-01-16T17:11:36.377Z,73.83
2024-01-16T17:13:39.768Z,76.27
2024-01-16T17:15:41.293Z,76.70
2024-01-16T17:17:42.943Z,76.10
2024-01-16T17:19:44.487Z,73.03
2024-01-16T17:21:47.514Z,72.99
2024-01-16T17:23:49.318Z,69.71
2024-01-16T17:25:50.871Z,71.54
2024-01-16T17:27:52.420Z,72.77
2024-01-16T17:29:54.081Z,73.73
2024-01-16T17:31:55.828Z,74.43
2024-01-16T17:33:57.742Z,74.73
2024-01-16T17:36:00.002Z,75.35
2024-01-16T17:38:03.190Z,75.61
2024-01-16T17:40:05.858Z,75.58
2024-01-16T17:42:07.643Z,75.69
2024-01-16T17:44:09.246Z,75.96
2024-01-16T17:46:10.809Z,76.45
2024-01-16T17:48:13.134Z,76.23
2024-01-16T17:50:15.563Z,76.99
2024-01-16T17:52:17.151Z,76.81
2024-01-16T17:54:20.213Z,76.42
2024-01-16T17:56:24.500Z,76.66
2024-01-16T17:58:27.026Z,76.82
2024-01-16T18:00:28.725Z,77.11
2024-01-16T18:02:30.343Z,76.63
2024-01-16T18:04:31.918Z,76.63
2024-01-16T18:06:33.606Z,76.53
2024-01-16T18:08:35.410Z,76.73
2024-01-16T18:10:38.290Z,76.70
2024-01-16T18:12:39.974Z,76.76
2024-01-16T18:14:41.566Z,76.36
2024-01-16T18:16:43.608Z,76.27
2024-01-16T18:18:45.227Z,77.29
2024-01-16T18:20:46.836Z,77.75
2024-01-16T18:22:49.021Z,77.93
2024-01-16T18:24:51.437Z,78.42
2024-01-16T18:26:54.663Z,78.53
2024-01-16T18:28:56.231Z,79.01
2024-01-16T18:30:58.173Z,79.32
2024-01-16T18:32:59.912Z,80.54
2024-01-16T18:35:01.473Z,80.80
2024-01-16T18:37:03.215Z,80.52
2024-01-16T18:39:04.863Z,81.32
2024-01-16T18:41:07.089Z,81.24
2024-01-16T18:43:09.973Z,80.47
2024-01-16T18:45:11.541Z,80.66
2024-01-16T18:47:13.069Z,81.16
2024-01-16T18:49:14.673Z,80.39
2024-01-16T18:51:16.231Z,80.45
2024-01-16T18:53:17.856Z,79.11
2024-01-16T18:55:20.749Z,80.08
2024-01-16T18:57:22.240Z,79.86
2024-01-16T18:59:25.237Z,80.50
2024-01-16T19:01:26.875Z,80.58
2024-01-16T19:03:28.579Z,80.49
2024-01-16T19:05:30.283Z,80.40
2024-01-16T19:07:31.867Z,80.48
2024-01-16T19:09:33.368Z,80.52
2024-01-16T19:11:34.975Z,81.07
2024-01-16T19:13:38.775Z,80.54
2024-01-16T19:15:41.644Z,81.09
2024-01-16T19:17:43.297Z,80.33
2024-01-16T19:19:45.022Z,80.59
2024-01-16T19:21:47.722Z,80.37
2024-01-16T19:23:49.573Z,80.87
2024-01-16T19:25:51.167Z,80.57
2024-01-16T19:27:52.754Z,81.19
2024-01-16T19:29:54.379Z,79.75
2024-01-16T19:31:57.362Z,78.72
2024-01-16T19:33:59.307Z,77.63
2024-01-16T19:36:00.942Z,77.33
2024-01-16T19:38:02.640Z,76.89
2024-01-16T19:40:06.468Z,76.54
2024-01-16T19:42:08.066Z,76.18
2024-01-16T19:44:09.658Z,76.29
2024-01-16T19:46:11.178Z,75.66
2024-01-16T19:48:14.634Z,75.13
2024-01-16T19:50:16.304Z,75.54
2024-01-16T19:52:17.813Z,75.71
2024-01-16T19:54:19.303Z,77.54
2024-01-16T19:56:20.892Z,78.10
2024-01-16T19:58:22.429Z,79.34
2024-01-16T20:00:24.064Z,79.86
2024-01-16T20:02:25.721Z,80.65
2024-01-16T20:04:28.804Z,81.34
2024-01-16T20:06:30.670Z,81.52
2024-01-16T20:08:32.306Z,82.03
2024-01-16T20:10:34.012Z,83.08
2024-01-16T20:12:40.241Z,82.49
2024-01-16T20:14:42.675Z,83.41
2024-01-16T20:16:44.275Z,83.33
2024-01-16T20:18:46.090Z,83.33
2024-01-16T20:20:49.127Z,83.03
2024-01-16T20:22:50.688Z,83.74
2024-01-16T20:24:52.203Z,83.84
2024-01-16T20:26:53.787Z,83.65
2024-01-16T20:28:55.350Z,83.79
2024-01-16T20:30:57.010Z,83.45
2024-01-16T20:32:58.659Z,82.86
2024-01-16T20:35:00.389Z,83.13
2024-01-16T20:37:03.629Z,82.98
2024-01-16T20:39:05.396Z,82.60
2024-01-16T20:41:07.117Z,82.73
2024-01-16T20:43:08.712Z,83.07
2024-01-16T20:45:10.900Z,82.33
2024-01-16T20:47:12.536Z,81.69
2024-01-16T20:49:14.214Z,82.66
2024-01-16T20:51:15.822Z,82.50
2024-01-16T20:53:18.774Z,82.81
2024-01-16T20:55:20.330Z,82.84
2024-01-16T20:57:21.856Z,83.35
2024-01-16T20:59:23.436Z,83.49
2024-01-16T21:01:25.065Z,83.21
2024-01-16T21:03:26.650Z,83.50
2024-01-16T21:05:28.472Z,83.74
2024-01-16T21:07:30.398Z,83.69
2024-01-16T21:09:33.380Z,84.01
2024-01-16T21:11:34.938Z,83.33
2024-01-16T21:13:36.473Z,82.71
2024-01-16T21:15:37.977Z,83.43
2024-01-16T21:17:39.623Z,83.17
2024-01-16T21:19:41.873Z,83.23
2024-01-16T21:21:43.470Z,82.91
2024-01-16T21:23:45.645Z,82.60
2024-01-16T21:25:48.548Z,82.87
2024-01-16T21:27:50.101Z,82.42
2024-01-16T21:29:51.647Z,82.98
2024-01-16T21:31:53.299Z,83.23
2024-01-16T21:33:55.014Z,83.38
2024-01-16T21:35:56.821Z,83.53
2024-01-16T21:37:58.498Z,83.78
2024-01-16T21:40:00.203Z,83.33
2024-01-16T21:42:04.027Z,82.80
2024-01-16T21:44:05.669Z,82.67
2024-01-16T21:46:07.215Z,83.09
2024-01-16T21:48:08.856Z,82.25
2024-01-16T21:50:13.122Z,83.56
2024-01-16T21:52:14.655Z,83.81
2024-01-16T21:54:16.181Z,83.74
2024-01-16T21:56:17.746Z,83.77
2024-01-16T21:58:20.614Z,83.56
2024-01-16T22:00:22.378Z,83.02
2024-01-16T22:02:23.893Z,83.25
2024-01-16T22:04:25.515Z,83.49
2024-01-16T22:06:27.859Z,84.35
2024-01-16T22:08:29.495Z,84.12
2024-01-16T22:10:31.020Z,84.12
2024-01-16T22:12:32.613Z,83.92
2024-01-16T22:14:35.584Z,83.55
2024-01-16T22:16:37.118Z,83.48
2024-01-16T22:18:38.964Z,84.73
2024-01-16T22:20:40.680Z,85.16
2024-01-16T22:22:42.257Z,85.50
2024-01-16T22:24:43.807Z,85.57
2024-01-16T22:26:45.350Z,85.50
2024-01-16T22:28:47.506Z,84.85
2024-01-16T22:30:50.401Z,84.87
2024-01-16T22:32:52.032Z,84.89
2024-01-16T22:34:53.619Z,85.20
2024-01-16T22:36:55.109Z,84.87
2024-01-16T22:38:56.689Z,85.44
2024-01-16T22:40:58.354Z,85.65
2024-01-16T22:42:59.974Z,85.14
2024-01-16T22:45:01.660Z,85.76
2024-01-16T22:47:05.022Z,85.78
2024-01-16T22:49:07.013Z,85.80
2024-01-16T22:51:08.642Z,86.03
2024-01-16T22:53:10.302Z,85.88
2024-01-16T22:55:11.889Z,85.82
2024-01-16T22:57:13.526Z,85.86
2024-01-16T22:59:15.057Z,85.04
2024-01-16T23:01:16.655Z,84.21
2024-01-16T23:03:19.608Z,85.06
2024-01-16T23:05:21.529Z,84.27
2024-01-16T23:07:23.104Z,84.56
2024-01-16T23:09:24.725Z,83.87
2024-01-16T23:11:26.378Z,83.45
2024-01-16T23:13:27.950Z,83.90
2024-01-16T23:15:29.528Z,84.33
2024-01-16T23:17:31.161Z,84.19
2024-01-16T23:19:34.107Z,84.51
2024-01-16T23:21:35.756Z,83.83
2024-01-16T23:23:37.300Z,84.48
2024-01-16T23:25:38.879Z,84.66
2024-01-16T23:27:41.567Z,84.95
2024-01-16T23:29:43.104Z,85.03
2024-01-16T23:31:44.650Z,84.14
2024-01-16T23:33:46.369Z,83.87
2024-01-16T23:35:49.392Z,84.83
2024-01-16T23:37:50.906Z,85.16
2024-01-16T23:39:52.414Z,85.11
2024-01-16T23:41:53.928Z,85.04
2024-01-16T23:43:55.452Z,85.34
2024-01-16T23:45:56.989Z,85.68
2024-01-16T23:47:58.603Z,84.73
2024-01-16T23:50:00.435Z,84.75
2024-01-16T23:52:03.788Z,84.64
2024-01-16T23:54:05.437Z,85.02
2024-01-16T23:56:07.026Z,84.71
2024-01-16T23:58:08.590Z,85.02
